createdAt,value
2022-12-16T00:00:32.026Z,94731.25
2022-12-16T00:01:37.551Z,94728.53
2022-12-16T00:02:42.210Z,94736.09
2022-12-16T00:03:48.948Z,94733.69
2022-12-16T00:04:53.562Z,94736.97
2022-12-16T00:05:55.563Z,94734.44
2022-12-16T00:07:06.167Z,94735.16
2022-12-16T00:08:08.124Z,94731.78
2022-12-16T00:09:12.840Z,94728.41
2022-12-16T00:10:15.524Z,94729.31
2022-12-16T00:11:20.356Z,94728.41
2022-12-16T00:12:22.874Z,94730.16
2022-12-16T00:13:27.869Z,94728.38
2022-12-16T00:14:30.137Z,94730.22
2022-12-16T00:15:36.771Z,94736.28
2022-12-16T00:16:39.848Z,94735.34
2022-12-16T00:17:44.454Z,94732.03
2022-12-16T00:18:47.173Z,94738.00
2022-12-16T00:19:51.978Z,94737.88
2022-12-16T00:20:57.363Z,94740.38
2022-12-16T00:22:05.063Z,94738.78
2022-12-16T00:23:07.175Z,94740.63
2022-12-16T00:24:11.763Z,94737.25
2022-12-16T00:25:13.708Z,94733.00
2022-12-16T00:26:18.683Z,94745.72
2022-12-16T00:27:20.661Z,94742.34
2022-12-16T00:28:26.732Z,94741.53
2022-12-16T00:29:28.713Z,94739.00
2022-12-16T00:30:33.534Z,94736.50
2022-12-16T00:31:38.244Z,94738.97
2022-12-16T00:32:43.513Z,94744.06
2022-12-16T00:33:46.001Z,94741.63
2022-12-16T00:34:50.657Z,94745.84
2022-12-16T00:35:55.016Z,94744.22
2022-12-16T00:36:59.846Z,94747.44
2022-12-16T00:38:05.103Z,94748.38
2022-12-16T00:39:09.723Z,94754.34
2022-12-16T00:40:12.477Z,94752.72
2022-12-16T00:41:17.268Z,94752.72
2022-12-16T00:42:19.239Z,94747.63
2022-12-16T00:43:26.956Z,94752.66
2022-12-16T00:44:31.280Z,94751.75
2022-12-16T00:45:36.306Z,94739.91
2022-12-16T00:46:41.199Z,94743.22
2022-12-16T00:47:44.030Z,94738.97
2022-12-16T00:48:48.739Z,94750.94
2022-12-16T00:49:50.976Z,94750.19
2022-12-16T00:50:57.799Z,94754.34
2022-12-16T00:51:59.948Z,94752.72
2022-12-16T00:53:08.289Z,94755.25
2022-12-16T00:54:10.477Z,94753.53
2022-12-16T00:55:15.211Z,94751.84
2022-12-16T00:56:18.921Z,94754.47
2022-12-16T00:57:23.488Z,94748.41
2022-12-16T00:58:25.434Z,94754.34
2022-12-16T00:59:31.074Z,94755.25
2022-12-16T01:00:34.275Z,94761.91
2022-12-16T01:01:39.206Z,94762.63
2022-12-16T01:02:41.538Z,94754.97
2022-12-16T01:03:46.605Z,94757.50
2022-12-16T01:04:48.951Z,94763.41
2022-12-16T01:05:53.638Z,94755.88
2022-12-16T01:06:56.247Z,94751.47
2022-12-16T01:08:03.127Z,94752.28
2022-12-16T01:09:10.603Z,94748.84
2022-12-16T01:10:12.710Z,94747.13
2022-12-16T01:11:19.246Z,94747.19
2022-12-16T01:12:21.266Z,94748.84
2022-12-16T01:13:27.535Z,94746.25
2022-12-16T01:14:29.542Z,94742.84
2022-12-16T01:15:34.272Z,94739.41
2022-12-16T01:16:37.028Z,94749.59
2022-12-16T01:17:43.392Z,94748.72
2022-12-16T01:18:48.049Z,94752.88
2022-12-16T01:19:58.642Z,94752.13
2022-12-16T01:21:06.687Z,94757.22
2022-12-16T01:22:09.624Z,94758.03
2022-12-16T01:23:15.755Z,94760.63
2022-12-16T01:24:23.021Z,94758.94
2022-12-16T01:25:28.846Z,94758.88
2022-12-16T01:26:32.742Z,94763.88
2022-12-16T01:27:37.496Z,94758.84
2022-12-16T01:28:41.474Z,94760.56
2022-12-16T01:29:46.738Z,94762.34
2022-12-16T01:30:49.869Z,94764.97
2022-12-16T01:31:54.695Z,94777.72
2022-12-16T01:32:59.496Z,94775.19
2022-12-16T01:34:04.635Z,94776.78
2022-12-16T01:35:18.106Z,94773.31
2022-12-16T01:36:29.928Z,94779.31
2022-12-16T01:37:31.954Z,94780.34
2022-12-16T01:38:38.927Z,94771.03
2022-12-16T01:39:43.674Z,94775.31
2022-12-16T01:40:48.393Z,94776.94
2022-12-16T01:41:53.275Z,94776.97
2022-12-16T01:42:55.252Z,94788.00
2022-12-16T01:44:17.139Z,94791.41
2022-12-16T01:45:30.355Z,94790.50
2022-12-16T01:46:38.938Z,94794.75
2022-12-16T01:47:41.163Z,94806.63
2022-12-16T01:48:52.229Z,94804.09
2022-12-16T01:49:58.678Z,94806.63
2022-12-16T01:51:13.863Z,94799.91
2022-12-16T01:52:23.306Z,94808.34
2022-12-16T01:53:28.003Z,94810.03
2022-12-16T01:54:35.319Z,94813.56
2022-12-16T01:55:47.680Z,94803.41
2022-12-16T01:56:58.967Z,94809.31
2022-12-16T01:58:07.772Z,94802.50
2022-12-16T01:59:18.377Z,94811.00
2022-12-16T02:00:20.626Z,94806.75
2022-12-16T02:01:28.238Z,94811.00
2022-12-16T02:02:30.471Z,94809.31
2022-12-16T02:03:38.625Z,94817.78
2022-12-16T02:05:01.860Z,94811.84
2022-12-16T02:06:08.710Z,94815.25
2022-12-16T02:07:10.654Z,94815.25
2022-12-16T02:08:17.862Z,94826.25
2022-12-16T02:09:20.965Z,94825.41
2022-12-16T02:10:33.318Z,94820.25
2022-12-16T02:12:02.184Z,94822.81
2022-12-16T02:13:13.421Z,94826.25
2022-12-16T02:14:41.567Z,94826.19
2022-12-16T02:15:49.997Z,94828.72
2022-12-16T02:17:01.034Z,94831.19
2022-12-16T02:18:14.870Z,94825.34
2022-12-16T02:19:37.507Z,94830.44
2022-12-16T02:21:18.612Z,94826.81
2022-12-16T02:22:41.645Z,94820.81
2022-12-16T02:24:03.882Z,94818.19
2022-12-16T02:25:37.991Z,94820.75
2022-12-16T02:27:12.730Z,94814.78
2022-12-16T02:28:33.430Z,94816.44
2022-12-16T02:30:13.702Z,94813.00
2022-12-16T02:31:32.115Z,94810.44
2022-12-16T02:32:49.062Z,94810.53
2022-12-16T02:34:05.266Z,94808.88
2022-12-16T02:35:13.155Z,94816.47
2022-12-16T02:36:27.344Z,94808.66
2022-12-16T02:37:38.839Z,94811.31
2022-12-16T02:38:57.651Z,94809.56
2022-12-16T02:40:03.214Z,94812.06
2022-12-16T02:41:14.744Z,94808.75
2022-12-16T02:42:19.994Z,94807.09
2022-12-16T02:43:41.198Z,94806.28
2022-12-16T02:44:56.209Z,94816.47
2022-12-16T02:45:59.121Z,94811.47
2022-12-16T02:47:06.886Z,94811.50
2022-12-16T02:48:08.866Z,94814.91
2022-12-16T02:49:43.594Z,94813.25
2022-12-16T02:50:49.476Z,94820.13
2022-12-16T02:51:55.135Z,94815.94
2022-12-16T02:52:58.742Z,94830.34
2022-12-16T02:54:04.976Z,94827.25
2022-12-16T02:55:12.554Z,94822.19
2022-12-16T02:56:25.798Z,94831.47
2022-12-16T02:57:56.470Z,94830.59
2022-12-16T02:59:11.711Z,94832.28
2022-12-16T03:00:21.500Z,94843.34
2022-12-16T03:01:36.109Z,94834.06
2022-12-16T03:02:51.222Z,94838.31
2022-12-16T03:04:05.010Z,94839.09
2022-12-16T03:05:14.284Z,94841.63
2022-12-16T03:06:22.945Z,94840.78
2022-12-16T03:07:27.500Z,94844.16
2022-12-16T03:08:37.059Z,94845.91
2022-12-16T03:09:41.339Z,94851.81
2022-12-16T03:10:49.412Z,94851.81
2022-12-16T03:11:52.966Z,94842.59
2022-12-16T03:12:59.522Z,94850.25
2022-12-16T03:14:03.507Z,94846.81
2022-12-16T03:15:10.979Z,94851.06
2022-12-16T03:16:19.311Z,94847.63
2022-12-16T03:17:24.545Z,94851.84
2022-12-16T03:18:32.530Z,94848.50
2022-12-16T03:19:36.225Z,94844.22
2022-12-16T03:20:46.708Z,94840.72
2022-12-16T03:21:55.041Z,94848.34
2022-12-16T03:23:05.203Z,94841.53
2022-12-16T03:24:13.988Z,94845.81
2022-12-16T03:25:16.553Z,94845.78
2022-12-16T03:26:26.082Z,94840.69
2022-12-16T03:27:36.025Z,94835.50
2022-12-16T03:28:47.562Z,94838.94
2022-12-16T03:29:52.051Z,94836.53
2022-12-16T03:31:04.934Z,94839.00
2022-12-16T03:32:17.101Z,94840.63
2022-12-16T03:33:25.028Z,94837.97
2022-12-16T03:34:37.967Z,94840.53
2022-12-16T03:35:45.705Z,94846.47
2022-12-16T03:36:54.620Z,94846.56
2022-12-16T03:37:59.151Z,94850.72
2022-12-16T03:39:05.950Z,94849.91
2022-12-16T03:40:10.895Z,94845.66
2022-12-16T03:41:17.763Z,94849.88
2022-12-16T03:42:19.733Z,94850.75
2022-12-16T03:43:24.941Z,94851.63
2022-12-16T03:44:27.122Z,94859.31
2022-12-16T03:45:39.514Z,94845.88
2022-12-16T03:46:41.803Z,94851.00
2022-12-16T03:47:52.437Z,94860.25
2022-12-16T03:48:54.439Z,94863.69
2022-12-16T03:50:02.105Z,94866.22
2022-12-16T03:51:04.541Z,94862.00
2022-12-16T03:52:10.053Z,94857.88
2022-12-16T03:53:12.190Z,94876.44
2022-12-16T03:54:19.129Z,94875.56
2022-12-16T03:55:21.176Z,94873.13
2022-12-16T03:56:27.760Z,94872.31
2022-12-16T03:57:29.808Z,94878.16
2022-12-16T03:58:35.545Z,94878.16
2022-12-16T03:59:37.866Z,94885.75
2022-12-16T04:00:42.873Z,94875.63
2022-12-16T04:01:44.977Z,94880.75
2022-12-16T04:02:50.257Z,94885.00
2022-12-16T04:03:52.512Z,94887.47
2022-12-16T04:04:57.351Z,94881.56
2022-12-16T04:06:02.262Z,94881.56
2022-12-16T04:07:19.391Z,94888.44
2022-12-16T04:08:23.950Z,94893.44
2022-12-16T04:09:25.923Z,94888.38
2022-12-16T04:10:42.856Z,94890.13
2022-12-16T04:12:05.442Z,94893.38
2022-12-16T04:13:23.662Z,94891.66
2022-12-16T04:14:40.679Z,94888.25
2022-12-16T04:15:57.959Z,94887.41
2022-12-16T04:17:15.168Z,94887.47
2022-12-16T04:18:34.305Z,94890.78
2022-12-16T04:20:08.278Z,94888.25
2022-12-16T04:21:28.284Z,94895.78
2022-12-16T04:22:49.189Z,94893.19
2022-12-16T04:24:10.715Z,94893.94
2022-12-16T04:25:18.354Z,94898.25
2022-12-16T04:26:20.757Z,94899.97
2022-12-16T04:27:27.768Z,94897.41
2022-12-16T04:28:33.002Z,94902.50
2022-12-16T04:29:55.264Z,94905.81
2022-12-16T04:31:01.963Z,94904.97
2022-12-16T04:32:04.604Z,94899.91
2022-12-16T04:33:24.338Z,94905.03
2022-12-16T04:34:29.474Z,94904.16
2022-12-16T04:35:46.748Z,94911.00
2022-12-16T04:37:06.642Z,94913.59
2022-12-16T04:38:23.686Z,94912.91
2022-12-16T04:39:40.743Z,94915.44
2022-12-16T04:40:57.814Z,94914.56
2022-12-16T04:42:14.917Z,94923.19
2022-12-16T04:43:33.824Z,94930.75
2022-12-16T04:44:51.203Z,94930.72
2022-12-16T04:46:08.322Z,94929.06
2022-12-16T04:47:25.707Z,94922.28
2022-12-16T04:48:42.898Z,94928.19
2022-12-16T04:49:59.990Z,94933.25
2022-12-16T04:51:17.077Z,94931.59
2022-12-16T04:52:36.979Z,94932.50
2022-12-16T04:53:54.190Z,94931.72
2022-12-16T04:55:11.224Z,94929.16
2022-12-16T04:56:28.302Z,94933.41
2022-12-16T04:57:45.424Z,94937.63
2022-12-16T04:59:02.468Z,94935.97
2022-12-16T05:00:21.308Z,94929.97
2022-12-16T05:01:38.424Z,94933.31
2022-12-16T05:02:55.779Z,94932.50
2022-12-16T05:04:12.900Z,94934.28
2022-12-16T05:05:31.322Z,94936.81
2022-12-16T05:06:48.970Z,94938.63
2022-12-16T05:08:08.765Z,94939.50
2022-12-16T05:09:25.850Z,94939.50
2022-12-16T05:10:42.914Z,94941.13
2022-12-16T05:12:00.107Z,94935.97
2022-12-16T05:13:17.123Z,94948.56
2022-12-16T05:14:34.372Z,94940.94
2022-12-16T05:15:51.459Z,94947.00
2022-12-16T05:17:08.556Z,94941.88
2022-12-16T05:18:26.416Z,94946.19
2022-12-16T05:19:43.470Z,94950.38
2022-12-16T05:21:00.543Z,94952.03
2022-12-16T05:22:17.572Z,94947.13
2022-12-16T05:23:37.546Z,94948.78
2022-12-16T05:25:00.708Z,94949.66
2022-12-16T05:26:17.765Z,94951.31
2022-12-16T05:27:34.826Z,94954.72
2022-12-16T05:28:52.066Z,94953.84
2022-12-16T05:30:09.103Z,94963.97
2022-12-16T05:31:37.701Z,94958.91
2022-12-16T05:32:54.726Z,94963.19
2022-12-16T05:34:12.752Z,94961.47
2022-12-16T05:35:29.947Z,94964.81
2022-12-16T05:36:47.014Z,94970.72
2022-12-16T05:38:04.034Z,94977.50
2022-12-16T05:39:23.917Z,94970.78
2022-12-16T05:40:40.972Z,94968.13
2022-12-16T05:41:58.134Z,94971.47
2022-12-16T05:43:17.812Z,94975.75
2022-12-16T05:44:35.060Z,94975.66
2022-12-16T05:45:52.267Z,94980.75
2022-12-16T05:47:09.623Z,94984.34
2022-12-16T05:48:26.870Z,94992.72
2022-12-16T05:49:43.995Z,94988.47
2022-12-16T05:51:01.173Z,94989.34
2022-12-16T05:52:20.352Z,94989.38
2022-12-16T05:53:37.683Z,94986.88
2022-12-16T05:54:57.637Z,94991.84
2022-12-16T05:56:14.682Z,94997.88
2022-12-16T05:57:31.761Z,94993.59
2022-12-16T05:58:48.843Z,94988.53
2022-12-16T06:01:37.505Z,95003.75
2022-12-16T06:02:55.088Z,95005.41
2022-12-16T06:04:17.273Z,95010.44
2022-12-16T06:05:34.836Z,95012.06
2022-12-16T06:06:53.488Z,95014.72
2022-12-16T06:08:11.958Z,95014.78
2022-12-16T06:09:29.031Z,95012.28
2022-12-16T06:10:48.885Z,95025.00
2022-12-16T06:12:07.885Z,95018.25
2022-12-16T06:13:26.843Z,95024.09
2022-12-16T06:14:43.907Z,95026.66
2022-12-16T06:16:06.757Z,95032.63
2022-12-16T06:17:25.989Z,95026.69
2022-12-16T06:18:43.096Z,95025.91
2022-12-16T06:20:00.103Z,95030.97
2022-12-16T06:21:19.024Z,95026.00
2022-12-16T06:22:36.265Z,95032.75
2022-12-16T06:23:53.296Z,95037.81
2022-12-16T06:25:10.355Z,95042.00
2022-12-16T06:26:30.365Z,95042.88
2022-12-16T06:27:47.649Z,95042.88
2022-12-16T06:29:04.775Z,95042.88
2022-12-16T06:30:23.419Z,95052.97
2022-12-16T06:31:46.703Z,95051.25
2022-12-16T06:33:03.869Z,95054.72
2022-12-16T06:34:21.217Z,95055.59
2022-12-16T06:35:38.334Z,95064.78
2022-12-16T06:36:57.023Z,95062.22
2022-12-16T06:38:14.091Z,95068.94
2022-12-16T06:39:31.127Z,95068.94
2022-12-16T06:40:48.216Z,95069.78
2022-12-16T06:42:08.362Z,95068.06
2022-12-16T06:43:25.703Z,95074.09
2022-12-16T06:44:57.635Z,95071.53
2022-12-16T06:46:14.730Z,95080.91
2022-12-16T06:47:31.957Z,95085.09
2022-12-16T06:48:49.298Z,95084.22
2022-12-16T06:50:06.654Z,95089.28
2022-12-16T06:51:23.730Z,95093.47
2022-12-16T06:52:41.034Z,95092.72
2022-12-16T06:53:58.136Z,95092.72
2022-12-16T06:55:15.248Z,95099.38
2022-12-16T06:56:32.347Z,95101.94
2022-12-16T06:57:52.065Z,95105.34
2022-12-16T06:59:09.374Z,95105.34
2022-12-16T07:00:27.711Z,95097.03
2022-12-16T07:01:45.303Z,95106.25
2022-12-16T07:03:02.584Z,95109.56
2022-12-16T07:04:19.718Z,95114.66
2022-12-16T07:05:36.789Z,95114.75
2022-12-16T07:06:53.876Z,95123.22
2022-12-16T07:08:11.703Z,95121.47
2022-12-16T07:09:28.707Z,95125.72
2022-12-16T07:10:45.783Z,95120.78
2022-12-16T07:12:03.199Z,95119.94
2022-12-16T07:13:22.998Z,95126.72
2022-12-16T07:14:40.295Z,95130.91
2022-12-16T07:15:58.501Z,95133.44
2022-12-16T07:17:17.441Z,95140.06
2022-12-16T07:18:49.447Z,95135.03
2022-12-16T07:20:08.598Z,95140.19
2022-12-16T07:21:26.844Z,95146.84
2022-12-16T07:22:44.271Z,95143.53
2022-12-16T07:24:01.409Z,95152.78
2022-12-16T07:25:19.010Z,95145.28
2022-12-16T07:26:36.215Z,95151.19
2022-12-16T07:27:53.280Z,95146.91
2022-12-16T07:29:14.590Z,95152.03
2022-12-16T07:30:31.783Z,95147.78
2022-12-16T07:31:49.099Z,95155.41
2022-12-16T07:33:06.314Z,95157.06
2022-12-16T07:34:24.043Z,95157.88
2022-12-16T07:35:41.546Z,95161.41
2022-12-16T07:37:07.291Z,95161.34
2022-12-16T07:38:24.350Z,95168.94
2022-12-16T07:39:41.616Z,95176.59
2022-12-16T07:40:59.805Z,95179.03
2022-12-16T07:42:17.057Z,95175.72
2022-12-16T07:43:34.824Z,95176.47
2022-12-16T07:44:55.045Z,95174.75
2022-12-16T07:46:12.194Z,95178.91
2022-12-16T07:47:29.276Z,95181.41
2022-12-16T07:48:46.306Z,95186.44
2022-12-16T07:50:03.709Z,95190.69
2022-12-16T07:51:22.337Z,95196.59
2022-12-16T07:52:39.625Z,95189.81
2022-12-16T07:53:57.282Z,95200.03
2022-12-16T07:55:14.354Z,95197.53
2022-12-16T07:56:31.718Z,95198.34
2022-12-16T07:57:48.820Z,95206.84
2022-12-16T07:59:05.899Z,95205.16
2022-12-16T08:00:27.734Z,95209.34
2022-12-16T08:01:47.417Z,95210.09
2022-12-16T08:03:08.580Z,95202.44
2022-12-16T08:04:25.839Z,95199.00
2022-12-16T08:05:43.298Z,95207.44
2022-12-16T08:07:00.451Z,95216.72
2022-12-16T08:08:18.553Z,95211.69
2022-12-16T08:09:35.841Z,95216.88
2022-12-16T08:10:53.121Z,95216.00
2022-12-16T08:12:14.828Z,95217.81
2022-12-16T08:13:31.926Z,95223.59
2022-12-16T08:14:49.154Z,95229.47
2022-12-16T08:16:09.167Z,95222.66
2022-12-16T08:17:26.411Z,95220.84
2022-12-16T08:18:43.718Z,95223.31
2022-12-16T08:20:00.845Z,95220.72
2022-12-16T08:21:18.025Z,95224.13
2022-12-16T08:22:35.211Z,95226.63
2022-12-16T08:23:56.505Z,95229.88
2022-12-16T08:25:14.280Z,95228.16
2022-12-16T08:26:31.454Z,95233.16
2022-12-16T08:27:48.606Z,95231.53
2022-12-16T08:29:27.218Z,95240.00
2022-12-16T08:30:43.334Z,95234.94
2022-12-16T08:32:05.652Z,95238.34
2022-12-16T08:33:23.923Z,95231.53
2022-12-16T08:34:41.597Z,95245.91
2022-12-16T08:35:59.096Z,95239.00
2022-12-16T08:37:17.858Z,95239.88
2022-12-16T08:38:34.932Z,95244.84
2022-12-16T08:40:17.617Z,95246.69
2022-12-16T08:41:29.563Z,95248.41
2022-12-16T08:42:46.776Z,95248.31
2022-12-16T08:44:04.057Z,95257.50
2022-12-16T08:45:22.377Z,95254.91
2022-12-16T08:46:39.642Z,95253.94
2022-12-16T08:48:08.560Z,95254.72
2022-12-16T08:49:25.709Z,95259.72
2022-12-16T08:50:44.070Z,95253.69
2022-12-16T08:52:03.288Z,95263.75
2022-12-16T08:53:26.452Z,95262.88
2022-12-16T08:54:43.499Z,95262.03
2022-12-16T08:56:00.702Z,95262.00
2022-12-16T08:57:18.290Z,95264.47
2022-12-16T09:00:08.534Z,95261.88
2022-12-16T09:01:26.219Z,95265.16
2022-12-16T09:02:43.746Z,95265.88
2022-12-16T09:04:05.807Z,95270.13
2022-12-16T09:05:23.185Z,95271.84
2022-12-16T09:06:41.088Z,95276.97
2022-12-16T09:07:58.324Z,95277.75
2022-12-16T09:09:15.344Z,95281.75
2022-12-16T09:10:39.236Z,95288.94
2022-12-16T09:11:57.451Z,95295.00
2022-12-16T09:13:21.237Z,95306.84
2022-12-16T09:14:38.702Z,95295.53
2022-12-16T09:15:55.851Z,95301.09
2022-12-16T09:17:13.763Z,95301.06
2022-12-16T09:18:39.368Z,95300.00
2022-12-16T09:19:59.072Z,95299.84
2022-12-16T09:21:17.025Z,95300.84
2022-12-16T09:22:34.158Z,95299.72
2022-12-16T09:23:51.270Z,95303.84
2022-12-16T09:25:08.378Z,95304.66
2022-12-16T09:26:25.868Z,95306.97
2022-12-16T09:27:43.000Z,95309.50
2022-12-16T09:29:00.065Z,95310.47
2022-12-16T09:30:19.557Z,95313.06
2022-12-16T09:31:39.132Z,95310.28
2022-12-16T09:32:57.270Z,95314.16
2022-12-16T09:34:14.356Z,95310.59
2022-12-16T09:35:34.413Z,95307.81
2022-12-16T09:36:51.665Z,95302.72
2022-12-16T09:38:09.798Z,95300.69
2022-12-16T09:39:28.100Z,95303.41
2022-12-16T09:41:07.911Z,95309.22
2022-12-16T09:42:38.656Z,95312.19
2022-12-16T09:44:23.445Z,95304.41
2022-12-16T09:45:51.585Z,95309.56
2022-12-16T09:47:19.388Z,95306.75
2022-12-16T09:48:44.163Z,95316.94
2022-12-16T09:50:05.798Z,95314.34
2022-12-16T09:51:28.340Z,95315.13
2022-12-16T09:52:52.591Z,95321.94
2022-12-16T09:54:11.694Z,95321.72
2022-12-16T09:55:42.574Z,95325.66
2022-12-16T09:57:01.057Z,95329.22
2022-12-16T09:58:24.521Z,95330.19
2022-12-16T09:59:46.035Z,95327.84
2022-12-16T10:01:03.373Z,95332.94
2022-12-16T10:02:29.518Z,95322.38
2022-12-16T10:03:53.559Z,95322.91
2022-12-16T10:05:12.976Z,95328.09
2022-12-16T10:06:59.859Z,95324.31
2022-12-16T10:08:24.035Z,95329.47
2022-12-16T10:09:45.443Z,95322.59
2022-12-16T10:11:07.099Z,95325.88
2022-12-16T10:12:29.817Z,95326.47
2022-12-16T10:15:49.677Z,95325.06
2022-12-16T10:17:15.415Z,95324.69
2022-12-16T10:18:46.406Z,95330.94
2022-12-16T10:20:09.910Z,95329.47
2022-12-16T10:21:35.045Z,95328.91
2022-12-16T10:23:03.295Z,95326.59
2022-12-16T10:24:38.208Z,95329.41
2022-12-16T10:26:01.292Z,95334.34
2022-12-16T10:27:26.187Z,95328.78
2022-12-16T10:30:30.481Z,95320.66
2022-12-16T10:31:49.004Z,95325.78
2022-12-16T10:33:08.567Z,95328.34
2022-12-16T10:34:29.078Z,95328.81
2022-12-16T10:35:51.030Z,95322.41
2022-12-16T10:37:11.756Z,95329.34
2022-12-16T10:38:37.719Z,95324.91
2022-12-16T10:39:58.258Z,95326.97
2022-12-16T10:41:16.963Z,95336.53
2022-12-16T10:42:37.939Z,95343.94
2022-12-16T10:43:59.920Z,95336.09
2022-12-16T10:45:18.413Z,95334.25
2022-12-16T10:46:40.275Z,95334.16
2022-12-16T10:47:57.316Z,95333.78
2022-12-16T10:49:14.736Z,95332.09
2022-12-16T10:50:32.495Z,95334.59
2022-12-16T10:51:49.678Z,95343.38
2022-12-16T10:53:12.689Z,95330.28
2022-12-16T10:54:54.135Z,95337.97
2022-12-16T10:56:23.899Z,95344.56
2022-12-16T10:57:50.691Z,95340.94
2022-12-16T10:59:11.129Z,95343.38
2022-12-16T11:00:33.571Z,95349.38
2022-12-16T11:01:50.899Z,95353.78
2022-12-16T11:03:11.774Z,95355.38
2022-12-16T11:04:49.168Z,95354.28
2022-12-16T11:06:06.564Z,95356.47
2022-12-16T11:07:39.114Z,95350.28
2022-12-16T11:08:56.278Z,95349.44
2022-12-16T11:10:21.343Z,95356.94
2022-12-16T11:11:43.465Z,95350.19
2022-12-16T11:13:09.404Z,95352.19
2022-12-16T11:14:37.068Z,95346.84
2022-12-16T11:15:54.345Z,95359.25
2022-12-16T11:17:37.530Z,95352.97
2022-12-16T11:19:06.255Z,95350.84
2022-12-16T11:20:30.034Z,95356.78
2022-12-16T11:22:02.256Z,95349.81
2022-12-16T11:23:28.502Z,95355.88
2022-12-16T11:24:45.926Z,95353.78
2022-12-16T11:26:19.305Z,95351.84
2022-12-16T11:27:41.170Z,95360.25
2022-12-16T11:28:58.218Z,95350.56
2022-12-16T11:30:18.601Z,95357.34
2022-12-16T11:31:36.107Z,95352.81
2022-12-16T11:33:02.170Z,95362.38
2022-12-16T11:34:19.993Z,95360.38
2022-12-16T11:35:41.836Z,95364.38
2022-12-16T11:37:01.060Z,95361.63
2022-12-16T11:38:24.371Z,95363.03
2022-12-16T11:39:44.634Z,95371.41
2022-12-16T11:41:02.339Z,95362.38
2022-12-16T11:42:27.343Z,95354.38
2022-12-16T12:13:05.492Z,95404.72
2022-12-16T12:14:33.436Z,95410.00
2022-12-16T12:15:57.630Z,95410.03
2022-12-16T12:17:27.417Z,95409.19
2022-12-16T12:18:55.951Z,95419.41
2022-12-16T12:20:26.416Z,95417.66
2022-12-16T12:21:57.757Z,95422.94
2022-12-16T12:23:22.434Z,95421.78
2022-12-16T12:24:51.342Z,95426.81
2022-12-16T12:26:21.861Z,95424.06
2022-12-16T12:29:31.873Z,95423.72
2022-12-16T12:30:57.643Z,95421.06
2022-12-16T12:32:39.058Z,95425.13
2022-12-16T12:34:17.655Z,95418.88
2022-12-16T12:36:02.467Z,95421.41
2022-12-16T12:37:25.680Z,95420.88
2022-12-16T12:38:50.931Z,95425.16
2022-12-16T12:40:15.659Z,95435.44
2022-12-16T12:41:38.647Z,95430.16
2022-12-16T12:43:03.315Z,95429.94
2022-12-16T12:44:42.337Z,95434.19
2022-12-16T12:46:14.486Z,95437.28
2022-12-16T12:47:36.192Z,95438.00
2022-12-16T12:49:03.241Z,95434.59
2022-12-16T12:50:26.150Z,95437.06
2022-12-16T12:51:49.994Z,95442.53
2022-12-16T12:53:22.974Z,95442.16
2022-12-16T12:54:49.261Z,95433.66
2022-12-16T12:56:16.006Z,95440.25
2022-12-16T12:57:38.188Z,95440.09
2022-12-16T12:58:57.604Z,95441.72
2022-12-16T13:00:21.010Z,95444.19
2022-12-16T13:01:42.513Z,95447.78
2022-12-16T13:03:06.731Z,95446.75
2022-12-16T13:04:28.189Z,95451.84
2022-12-16T13:05:49.793Z,95458.84
2022-12-16T13:07:08.734Z,95452.91
2022-12-16T13:08:49.144Z,95453.56
2022-12-16T13:10:49.954Z,95461.66
2022-12-16T13:12:45.942Z,95459.78
2022-12-16T13:14:03.967Z,95456.81
2022-12-16T13:15:25.779Z,95471.78
2022-12-16T13:17:19.044Z,95464.91
2022-12-16T13:18:43.270Z,95465.59
2022-12-16T13:20:09.063Z,95474.13
2022-12-16T13:22:01.138Z,95466.34
2022-12-16T13:23:43.910Z,95472.34
2022-12-16T13:25:05.016Z,95468.75
2022-12-16T13:26:25.424Z,95468.91
2022-12-16T13:27:45.181Z,95471.34
2022-12-16T13:29:23.819Z,95471.38
2022-12-16T13:30:46.539Z,95472.97
2022-12-16T13:32:18.427Z,95479.78
2022-12-16T13:33:53.763Z,95482.28
2022-12-16T13:35:15.843Z,95482.47
2022-12-16T13:36:34.662Z,95484.06
2022-12-16T13:37:51.838Z,95481.53
2022-12-16T13:39:10.950Z,95483.28
2022-12-16T13:40:34.185Z,95497.25
2022-12-16T13:42:15.189Z,95495.13
2022-12-16T13:44:25.886Z,95498.59
2022-12-16T13:45:51.849Z,95497.69
2022-12-16T13:47:10.785Z,95498.63
2022-12-16T13:48:45.468Z,95502.41
2022-12-16T13:50:03.901Z,95508.31
2022-12-16T13:51:21.118Z,95513.59
2022-12-16T13:52:43.147Z,95514.19
2022-12-16T13:54:04.979Z,95520.84
2022-12-16T13:55:30.460Z,95519.31
2022-12-16T13:56:52.685Z,95524.63
2022-12-16T13:58:17.600Z,95525.25
2022-12-16T13:59:38.085Z,95523.47
2022-12-16T14:00:59.179Z,95530.47
2022-12-16T14:02:30.193Z,95527.38
2022-12-16T14:03:57.621Z,95533.06
2022-12-16T14:05:15.101Z,95534.72
2022-12-16T14:06:34.904Z,95534.81
2022-12-16T14:09:18.335Z,95553.53
2022-12-16T14:10:41.671Z,95546.75
2022-12-16T14:13:44.831Z,95557.00
2022-12-16T14:15:07.734Z,95549.28
2022-12-16T14:16:31.541Z,95543.31
2022-12-16T14:17:55.320Z,95554.66
2022-12-16T14:19:24.853Z,95560.41
2022-12-16T14:22:54.772Z,95559.38
2022-12-16T14:26:29.638Z,95569.63
2022-12-16T14:27:56.267Z,95567.78
2022-12-16T14:29:18.612Z,95575.63
2022-12-16T14:30:39.414Z,95575.53
2022-12-16T14:32:04.410Z,95578.16
2022-12-16T14:33:38.322Z,95583.53
2022-12-16T14:36:57.461Z,95590.56
2022-12-16T14:38:51.113Z,95600.59
2022-12-16T14:40:11.689Z,95603.16
2022-12-16T14:41:32.916Z,95598.22
2022-12-16T14:44:44.484Z,95606.63
2022-12-16T14:46:17.128Z,95611.78
2022-12-16T14:47:42.803Z,95602.41
2022-12-16T14:49:11.047Z,95609.97
2022-12-16T14:50:35.858Z,95608.28
2022-12-16T14:55:55.100Z,95617.81
2022-12-16T14:57:14.295Z,95621.16
2022-12-16T14:58:32.723Z,95623.81
2022-12-16T14:59:49.714Z,95623.78
2022-12-16T15:01:13.790Z,95620.41
2022-12-16T15:02:45.882Z,95630.47
2022-12-16T15:04:05.139Z,95633.88
2022-12-16T15:05:22.670Z,95636.50
2022-12-16T15:06:42.480Z,95630.53
2022-12-16T15:07:59.534Z,95629.72
2022-12-16T15:09:20.367Z,95637.34
2022-12-16T15:10:41.152Z,95639.94
2022-12-16T15:11:59.847Z,95635.69
2022-12-16T15:13:17.252Z,95639.22
2022-12-16T15:14:41.349Z,95649.34
2022-12-16T15:16:02.104Z,95643.41
2022-12-16T15:17:19.565Z,95646.78
2022-12-16T15:18:45.239Z,95650.16
2022-12-16T15:20:05.188Z,95652.75
2022-12-16T15:21:29.147Z,95652.78
2022-12-16T15:22:46.395Z,95661.22
2022-12-16T15:24:03.493Z,95662.94
2022-12-16T15:25:22.100Z,95664.69
2022-12-16T15:26:41.278Z,95662.16
2022-12-16T15:27:58.280Z,95662.13
2022-12-16T15:29:15.314Z,95668.06
2022-12-16T15:30:49.582Z,95664.63
2022-12-16T15:32:06.799Z,95667.25
2022-12-16T15:33:33.071Z,95677.41
2022-12-16T15:35:03.075Z,95672.25
2022-12-16T15:36:21.950Z,95676.53
2022-12-16T15:37:41.228Z,95679.06
2022-12-16T15:38:58.045Z,95686.72
2022-12-16T15:40:15.074Z,95680.75
2022-12-16T15:41:46.371Z,95689.22
2022-12-16T15:43:06.531Z,95686.75
2022-12-16T15:44:32.962Z,95687.63
2022-12-16T15:45:50.682Z,95686.75
2022-12-16T15:47:08.002Z,95686.72
2022-12-16T15:48:33.228Z,95686.75
2022-12-16T15:49:53.648Z,95691.75
2022-12-16T15:51:13.742Z,95689.28
2022-12-16T15:52:50.137Z,95698.66
2022-12-16T15:54:17.681Z,95697.78
2022-12-16T15:55:40.863Z,95705.38
2022-12-16T15:57:00.902Z,95698.63
2022-12-16T15:58:18.390Z,95705.34
2022-12-16T15:59:51.192Z,95712.09